Ionia, IA (50645)

7:30 PM CDT on July 12, 2014 (GMT -0500)
Charles City Municipal (KCCY) Elev 1125 ft | 43.07 °N, 92.61 °W | Change Station

Current weather conditions updated 15 minutes ago

Overcast
Overcast
68 °F
Feels Like 68 °F
N
5
Wind Variable Wind from SSE

Tomorrow is forecast to be nearly the same temperature as today.

Today
High -- | Low -- °F
--% Chance of Precip.
Yesterday
High -- | Low -- °F
Precip. -- in
5:41 AM 8:48 PM
Full, 100% visible
Pressure 29.95 in
Visibility 10.0 miles
Clouds Scattered Clouds 7000 ft
Overcast 8000 ft
Dew Point 66 °F
Humidity 94%
Rainfall 0.30 in
Snow Depth Not available.
UV 0 out of 12
Pollen .50 out of 12
Air Quality Not available.
Flu Activity Sporadic
METAR KCCY 130015Z AUTO 15004KT 10SM SCT070 OVC080 20/19 A2995 RMK AO2

More Conditions Fewer Conditions

Pressure 29.95 in
Visibility 10.0 miles
Clouds Scattered Clouds 7000 ft
Overcast 8000 ft
Dew Point 66 °F
Humidity 94%
Rainfall 0.30 in
Snow Depth Not available.
UV 0 out of 12
Pollen .50 out of 12
Air Quality Not available.
Flu Activity Sporadic
METAR KCCY 130015Z AUTO 15004KT 10SM SCT070 OVC080 20/19 A2995 RMK AO2

More Conditions Fewer Conditions

10-Day Weather Forecast

Almanac

Astronomy

Jul. 12, 2014 Rise Set
Actual Time 5:41 AM CDT 8:48 PM CDT
Civil Twilight 5:07 AM CDT 9:23 PM CDT
Nautical Twilight 4:23 AM CDT 10:07 PM CDT
Astronomical Twilight 3:30 AM CDT 11:00 PM CDT
Moon 8:48 PM CDT (7/12) 6:04 AM CDT (7/12)
Length of Visible Light 16h 15m
Length of Day
15h 07m
Tomorrow will be 1m 23s shorter.
Full, 100% of the Moon is Illuminated
Today
Full
Jul 18
Last Quarter
Jul 26
New
Aug 3
First Quarter
Aug 10
Full

Today's Extremes

State Highs State Lows

Community

WunderPhotos

Upload Photos

1,733,016 photos uploaded!

WunderBlogs® & News

Nearby

Snow Depth

Station Depth Elevation
No new snow has been reported.

Earthquake Activity

City Distance Mag. Time & Date
No recent earthquake activity has been reported nearby.
Minimum magnitude displayed is 2.5.

Coastal Water Temperatures

Place Temperature
No Stations Reporting

Nearby Weather Stations

Station Location Temp. Dew Point Humidity Wind Precip. Elev Updated Type
Radio Station N0VTZ; 5 Mi. North of, Sumner, IA 65.8 °F -38 °F - NNE  at  0.0 mph 0.09 in / hr 1145 ft 7:30 PM CDT Rapid Fire
Wartburg College Observatory, Waverly, IA 66.5 °F 66 °F 97% ESE  at  3.5 mph 0.20 in / hr 928 ft 7:30 PM CDT Rapid Fire
Osage, IA 69.5 °F 64 °F 84% NNE  at  0.0 mph 0.00 in / hr 1173 ft 7:30 PM CDT Normal

Show More Stations Show Fewer Stations